sensor_id;sensor_type;location;lat;lon;timestamp;pressure;altitude;pressure_sealevel;temperature;humidity
36062;BME280;22123;52.412;20.970;2023-08-08T00:00:29;99701.81;;;14.90;100.00
36062;BME280;22123;52.412;20.970;2023-08-08T00:02:55;99735.41;;;15.15;100.00
36062;BME280;22123;52.412;20.970;2023-08-08T00:05:20;99738.78;;;15.10;100.00
36062;BME280;22123;52.412;20.970;2023-08-08T00:07:46;99752.97;;;15.12;100.00
36062;BME280;22123;52.412;20.970;2023-08-08T00:10:12;99688.34;;;14.77;100.00
36062;BME280;22123;52.412;20.970;2023-08-08T00:12:38;99750.66;;;15.09;100.00
36062;BME280;22123;52.412;20.970;2023-08-08T00:15:04;99712.03;;;14.88;100.00
36062;BME280;22123;52.412;20.970;2023-08-08T00:17:30;99737.47;;;14.87;100.00
36062;BME280;22123;52.412;20.970;2023-08-08T00:19:56;99711.31;;;14.74;100.00
36062;BME280;22123;52.412;20.970;2023-08-08T00:22:22;99731.31;;;14.73;100.00
36062;BME280;22123;52.412;20.970;2023-08-08T00:24:47;99776.59;;;14.98;100.00
36062;BME280;22123;52.412;20.970;2023-08-08T00:27:13;99733.00;;;14.68;100.00
36062;BME280;22123;52.412;20.970;2023-08-08T00:29:39;99781.19;;;14.98;100.00
36062;BME280;22123;52.412;20.970;2023-08-08T00:32:05;99743.53;;;14.83;100.00
36062;BME280;22123;52.412;20.970;2023-08-08T00:34:30;99781.81;;;15.00;100.00
36062;BME280;22123;52.412;20.970;2023-08-08T00:36:56;99749.81;;;14.83;100.00
36062;BME280;22123;52.412;20.970;2023-08-08T00:39:22;99780.13;;;14.99;100.00
36062;BME280;22123;52.412;20.970;2023-08-08T00:41:48;99782.84;;;14.99;100.00
36062;BME280;22123;52.412;20.970;2023-08-08T00:44:13;99779.97;;;14.93;100.00
36062;BME280;22123;52.412;20.970;2023-08-08T00:46:39;99771.72;;;14.82;100.00
36062;BME280;22123;52.412;20.970;2023-08-08T00:49:05;99798.94;;;14.93;100.00
36062;BME280;22123;52.412;20.970;2023-08-08T00:51:31;99773.34;;;14.83;100.00
36062;BME280;22123;52.412;20.970;2023-08-08T00:53:57;99786.25;;;14.87;100.00
36062;BME280;22123;52.412;20.970;2023-08-08T00:56:24;99786.91;;;14.83;100.00
36062;BME280;22123;52.412;20.970;2023-08-08T00:58:50;99811.28;;;14.83;100.00
36062;BME280;22123;52.412;20.970;2023-08-08T01:01:16;99808.13;;;14.86;100.00
36062;BME280;22123;52.412;20.970;2023-08-08T01:03:42;99757.38;;;14.61;100.00
36062;BME280;22123;52.412;20.970;2023-08-08T01:06:10;99809.44;;;14.76;100.00
36062;BME280;22123;52.412;20.970;2023-08-08T01:08:46;99807.41;;;14.65;100.00
36062;BME280;22123;52.412;20.970;2023-08-08T01:11:15;99783.72;;;14.47;100.00
36062;BME280;22123;52.412;20.970;2023-08-08T01:13:41;99785.59;;;14.40;100.00
36062;BME280;22123;52.412;20.970;2023-08-08T01:16:09;99823.06;;;14.63;100.00
36062;BME280;22123;52.412;20.970;2023-08-08T01:18:36;99802.09;;;14.32;100.00
36062;BME280;22123;52.412;20.970;2023-08-08T01:21:03;99807.94;;;14.29;100.00
36062;BME280;22123;52.412;20.970;2023-08-08T01:23:56;99838.69;;;14.41;100.00
36062;BME280;22123;52.412;20.970;2023-08-08T01:26:23;99820.03;;;14.19;100.00
36062;BME280;22123;52.412;20.970;2023-08-08T01:28:53;99838.53;;;14.29;100.00
36062;BME280;22123;52.412;20.970;2023-08-08T01:31:19;99837.06;;;14.33;100.00
36062;BME280;22123;52.412;20.970;2023-08-08T01:33:45;99819.41;;;14.17;100.00
36062;BME280;22123;52.412;20.970;2023-08-08T01:36:13;99843.13;;;14.29;100.00
36062;BME280;22123;52.412;20.970;2023-08-08T01:38:44;99824.81;;;14.11;100.00
36062;BME280;22123;52.412;20.970;2023-08-08T01:41:10;99800.09;;;13.94;100.00
36062;BME280;22123;52.412;20.970;2023-08-08T01:43:40;99846.03;;;14.20;100.00
36062;BME280;22123;52.412;20.970;2023-08-08T01:46:07;99839.84;;;14.06;100.00
36062;BME280;22123;52.412;20.970;2023-08-08T01:48:33;99835.88;;;13.96;100.00
36062;BME280;22123;52.412;20.970;2023-08-08T01:50:59;99821.94;;;13.92;100.00
36062;BME280;22123;52.412;20.970;2023-08-08T01:53:24;99817.78;;;13.83;100.00
36062;BME280;22123;52.412;20.970;2023-08-08T01:55:50;99845.66;;;13.97;100.00
36062;BME280;22123;52.412;20.970;2023-08-08T01:58:16;99828.41;;;13.91;100.00
36062;BME280;22123;52.412;20.970;2023-08-08T02:00:42;99851.09;;;13.97;100.00
36062;BME280;22123;52.412;20.970;2023-08-08T02:03:08;99808.03;;;13.62;100.00
36062;BME280;22123;52.412;20.970;2023-08-08T02:05:34;99835.91;;;13.62;100.00
36062;BME280;22123;52.412;20.970;2023-08-08T02:08:00;99876.47;;;13.96;100.00
36062;BME280;22123;52.412;20.970;2023-08-08T02:10:25;99859.44;;;13.82;100.00
36062;BME280;22123;52.412;20.970;2023-08-08T02:12:51;99862.53;;;13.85;100.00
36062;BME280;22123;52.412;20.970;2023-08-08T02:15:17;99842.13;;;13.63;100.00
36062;BME280;22123;52.412;20.970;2023-08-08T02:17:45;99841.94;;;13.57;100.00
36062;BME280;22123;52.412;20.970;2023-08-08T02:20:11;99890.00;;;13.82;100.00
36062;BME280;22123;52.412;20.970;2023-08-08T02:22:36;99861.47;;;13.60;100.00
36062;BME280;22123;52.412;20.970;2023-08-08T02:25:03;99855.66;;;13.56;100.00
36062;BME280;22123;52.412;20.970;2023-08-08T02:27:29;99868.16;;;13.57;100.00
36062;BME280;22123;52.412;20.970;2023-08-08T02:29:55;99883.13;;;13.66;100.00
36062;BME280;22123;52.412;20.970;2023-08-08T02:32:20;99882.31;;;13.66;100.00
36062;BME280;22123;52.412;20.970;2023-08-08T02:34:46;99895.59;;;13.61;100.00
36062;BME280;22123;52.412;20.970;2023-08-08T02:37:12;99892.47;;;13.64;100.00
36062;BME280;22123;52.412;20.970;2023-08-08T02:39:38;99904.56;;;13.68;100.00
36062;BME280;22123;52.412;20.970;2023-08-08T02:42:04;99875.19;;;13.45;100.00
36062;BME280;22123;52.412;20.970;2023-08-08T02:44:30;99842.06;;;13.22;100.00
36062;BME280;22123;52.412;20.970;2023-08-08T02:46:56;99908.50;;;13.59;100.00
36062;BME280;22123;52.412;20.970;2023-08-08T02:49:22;99898.06;;;13.42;100.00
36062;BME280;22123;52.412;20.970;2023-08-08T02:51:48;99880.53;;;13.25;100.00
36062;BME280;22123;52.412;20.970;2023-08-08T02:54:14;99910.09;;;13.33;100.00
36062;BME280;22123;52.412;20.970;2023-08-08T02:56:40;99918.03;;;13.34;100.00
36062;BME280;22123;52.412;20.970;2023-08-08T02:59:05;99903.59;;;13.20;100.00
36062;BME280;22123;52.412;20.970;2023-08-08T03:01:31;99907.34;;;13.26;100.00
36062;BME280;22123;52.412;20.970;2023-08-08T03:03:57;99932.78;;;13.45;100.00
36062;BME280;22123;52.412;20.970;2023-08-08T03:06:23;99926.72;;;13.30;100.00
36062;BME280;22123;52.412;20.970;2023-08-08T03:08:49;99915.00;;;13.16;100.00
36062;BME280;22123;52.412;20.970;2023-08-08T03:11:15;99933.13;;;13.22;100.00
36062;BME280;22123;52.412;20.970;2023-08-08T03:13:41;99914.56;;;13.05;100.00
36062;BME280;22123;52.412;20.970;2023-08-08T03:16:06;99932.88;;;13.10;100.00
36062;BME280;22123;52.412;20.970;2023-08-08T03:18:32;99927.03;;;13.07;100.00
36062;BME280;22123;52.412;20.970;2023-08-08T03:20:58;99928.69;;;13.08;100.00
36062;BME280;22123;52.412;20.970;2023-08-08T03:23:24;99911.59;;;12.94;100.00
36062;BME280;22123;52.412;20.970;2023-08-08T03:25:50;99966.41;;;13.22;100.00
36062;BME280;22123;52.412;20.970;2023-08-08T03:28:16;99947.59;;;13.08;100.00
36062;BME280;22123;52.412;20.970;2023-08-08T03:30:42;99977.81;;;13.25;100.00
36062;BME280;22123;52.412;20.970;2023-08-08T03:33:08;99931.53;;;12.93;100.00
36062;BME280;22123;52.412;20.970;2023-08-08T03:35:33;99970.75;;;13.17;100.00
36062;BME280;22123;52.412;20.970;2023-08-08T03:37:59;99921.34;;;12.88;100.00
36062;BME280;22123;52.412;20.970;2023-08-08T03:40:25;99936.09;;;12.85;100.00
36062;BME280;22123;52.412;20.970;2023-08-08T03:42:51;99989.66;;;13.17;100.00
36062;BME280;22123;52.412;20.970;2023-08-08T03:45:17;99909.78;;;12.59;100.00
36062;BME280;22123;52.412;20.970;2023-08-08T03:47:43;99971.66;;;12.96;100.00
36062;BME280;22123;52.412;20.970;2023-08-08T03:50:09;99974.56;;;12.87;100.00
36062;BME280;22123;52.412;20.970;2023-08-08T03:52:35;99987.25;;;12.94;100.00
36062;BME280;22123;52.412;20.970;2023-08-08T03:55:01;99979.09;;;12.80;100.00
36062;BME280;22123;52.412;20.970;2023-08-08T03:57:27;99956.41;;;12.75;100.00
36062;BME280;22123;52.412;20.970;2023-08-08T03:59:53;99982.88;;;12.93;100.00
36062;BME280;22123;52.412;20.970;2023-08-08T04:02:19;99994.34;;;12.95;100.00
36062;BME280;22123;52.412;20.970;2023-08-08T04:04:44;100019.34;;;13.10;100.00
36062;BME280;22123;52.412;20.970;2023-08-08T04:07:10;99989.28;;;12.85;100.00
36062;BME280;22123;52.412;20.970;2023-08-08T04:09:36;99985.50;;;12.79;100.00
36062;BME280;22123;52.412;20.970;2023-08-08T04:12:02;99976.75;;;12.77;100.00
36062;BME280;22123;52.412;20.970;2023-08-08T04:14:28;99996.53;;;12.84;100.00
36062;BME280;22123;52.412;20.970;2023-08-08T04:16:54;100021.81;;;13.05;100.00
36062;BME280;22123;52.412;20.970;2023-08-08T04:19:20;99991.53;;;12.81;100.00
36062;BME280;22123;52.412;20.970;2023-08-08T04:21:46;100021.72;;;12.92;100.00
36062;BME280;22123;52.412;20.970;2023-08-08T04:24:12;100015.91;;;12.88;100.00
36062;BME280;22123;52.412;20.970;2023-08-08T04:26:38;99995.84;;;12.76;100.00
36062;BME280;22123;52.412;20.970;2023-08-08T04:29:04;100034.47;;;12.98;100.00
36062;BME280;22123;52.412;20.970;2023-08-08T04:31:30;100032.19;;;13.01;100.00
36062;BME280;22123;52.412;20.970;2023-08-08T04:33:56;100032.38;;;13.00;100.00
36062;BME280;22123;52.412;20.970;2023-08-08T04:36:22;100035.53;;;13.03;100.00
36062;BME280;22123;52.412;20.970;2023-08-08T04:38:48;100027.22;;;13.05;100.00
36062;BME280;22123;52.412;20.970;2023-08-08T04:41:13;100036.41;;;13.11;100.00
36062;BME280;22123;52.412;20.970;2023-08-08T04:43:39;100021.16;;;13.03;100.00
36062;BME280;22123;52.412;20.970;2023-08-08T04:46:05;100028.66;;;13.08;100.00
36062;BME280;22123;52.412;20.970;2023-08-08T04:48:31;100048.91;;;13.18;100.00
36062;BME280;22123;52.412;20.970;2023-08-08T04:50:57;100012.38;;;12.94;100.00
36062;BME280;22123;52.412;20.970;2023-08-08T04:53:23;100019.34;;;13.10;100.00
36062;BME280;22123;52.412;20.970;2023-08-08T04:55:49;100036.22;;;13.12;100.00
36062;BME280;22123;52.412;20.970;2023-08-08T04:58:15;100064.63;;;13.36;100.00
36062;BME280;22123;52.412;20.970;2023-08-08T05:00:40;100075.31;;;13.51;100.00
36062;BME280;22123;52.412;20.970;2023-08-08T05:03:06;100042.53;;;13.33;100.00
36062;BME280;22123;52.412;20.970;2023-08-08T05:05:32;100064.50;;;13.51;100.00
36062;BME280;22123;52.412;20.970;2023-08-08T05:07:58;100045.06;;;13.34;100.00
36062;BME280;22123;52.412;20.970;2023-08-08T05:10:24;100045.34;;;13.46;100.00
36062;BME280;22123;52.412;20.970;2023-08-08T05:12:50;100057.84;;;13.54;100.00
36062;BME280;22123;52.412;20.970;2023-08-08T05:15:16;100046.19;;;13.53;100.00
36062;BME280;22123;52.412;20.970;2023-08-08T05:17:41;100062.88;;;13.64;100.00
36062;BME280;22123;52.412;20.970;2023-08-08T05:20:08;100052.31;;;13.76;100.00
36062;BME280;22123;52.412;20.970;2023-08-08T05:22:34;100039.19;;;13.72;100.00
36062;BME280;22123;52.412;20.970;2023-08-08T05:25:02;100089.41;;;14.02;100.00
36062;BME280;22123;52.412;20.970;2023-08-08T05:27:28;100065.69;;;13.90;100.00
36062;BME280;22123;52.412;20.970;2023-08-08T05:29:53;100083.22;;;14.08;100.00
36062;BME280;22123;52.412;20.970;2023-08-08T05:32:19;100056.53;;;13.98;100.00
36062;BME280;22123;52.412;20.970;2023-08-08T05:34:46;100099.28;;;14.30;100.00
36062;BME280;22123;52.412;20.970;2023-08-08T05:37:12;100082.00;;;14.31;100.00
36062;BME280;22123;52.412;20.970;2023-08-08T05:39:38;100073.44;;;14.20;100.00
36062;BME280;22123;52.412;20.970;2023-08-08T05:42:05;100063.66;;;14.13;100.00
36062;BME280;22123;52.412;20.970;2023-08-08T05:44:31;100094.72;;;14.37;100.00
36062;BME280;22123;52.412;20.970;2023-08-08T05:46:57;100097.19;;;14.32;100.00
36062;BME280;22123;52.412;20.970;2023-08-08T05:49:23;100088.88;;;14.26;100.00
36062;BME280;22123;52.412;20.970;2023-08-08T05:51:48;100097.66;;;14.35;100.00
36062;BME280;22123;52.412;20.970;2023-08-08T05:54:14;100074.72;;;14.31;100.00
36062;BME280;22123;52.412;20.970;2023-08-08T05:56:40;100097.00;;;14.47;100.00
36062;BME280;22123;52.412;20.970;2023-08-08T05:59:06;100116.44;;;14.64;100.00
36062;BME280;22123;52.412;20.970;2023-08-08T06:01:32;100094.94;;;14.49;100.00
36062;BME280;22123;52.412;20.970;2023-08-08T06:03:58;100098.06;;;14.46;100.00
36062;BME280;22123;52.412;20.970;2023-08-08T06:06:24;100105.56;;;14.43;100.00
36062;BME280;22123;52.412;20.970;2023-08-08T06:08:50;100102.22;;;14.48;100.00
36062;BME280;22123;52.412;20.970;2023-08-08T06:11:15;100119.75;;;14.59;100.00
36062;BME280;22123;52.412;20.970;2023-08-08T06:13:41;100108.25;;;14.57;100.00
36062;BME280;22123;52.412;20.970;2023-08-08T06:16:07;100095.16;;;14.60;100.00
36062;BME280;22123;52.412;20.970;2023-08-08T06:18:33;100116.22;;;14.78;100.00
36062;BME280;22123;52.412;20.970;2023-08-08T06:20:59;100116.44;;;14.84;100.00
36062;BME280;22123;52.412;20.970;2023-08-08T06:23:25;100143.13;;;15.00;100.00
36062;BME280;22123;52.412;20.970;2023-08-08T06:25:51;100096.44;;;14.78;100.00
36062;BME280;22123;52.412;20.970;2023-08-08T06:28:17;100125.59;;;14.96;100.00
36062;BME280;22123;52.412;20.970;2023-08-08T06:30:43;100112.69;;;14.98;100.00
36062;BME280;22123;52.412;20.970;2023-08-08T06:33:08;100141.63;;;15.18;100.00
36062;BME280;22123;52.412;20.970;2023-08-08T06:35:34;100102.06;;;14.90;100.00
36062;BME280;22123;52.412;20.970;2023-08-08T06:38:00;100117.91;;;15.00;100.00
36062;BME280;22123;52.412;20.970;2023-08-08T06:40:26;100146.03;;;15.19;100.00
36062;BME280;22123;52.412;20.970;2023-08-08T06:42:52;100151.44;;;15.32;100.00
36062;BME280;22123;52.412;20.970;2023-08-08T06:45:18;100118.94;;;15.05;100.00
36062;BME280;22123;52.412;20.970;2023-08-08T06:47:44;100158.13;;;15.29;100.00
36062;BME280;22123;52.412;20.970;2023-08-08T06:50:10;100128.53;;;15.08;100.00
36062;BME280;22123;52.412;20.970;2023-08-08T06:52:36;100129.53;;;15.27;100.00
36062;BME280;22123;52.412;20.970;2023-08-08T06:55:02;100131.22;;;15.21;100.00
36062;BME280;22123;52.412;20.970;2023-08-08T06:57:29;100170.81;;;15.56;100.00
36062;BME280;22123;52.412;20.970;2023-08-08T06:59:55;100134.13;;;15.33;100.00
36062;BME280;22123;52.412;20.970;2023-08-08T07:02:21;100143.09;;;15.20;100.00
36062;BME280;22123;52.412;20.970;2023-08-08T07:04:47;100173.13;;;15.39;100.00
36062;BME280;22123;52.412;20.970;2023-08-08T07:07:13;100138.72;;;15.26;100.00
36062;BME280;22123;52.412;20.970;2023-08-08T07:09:39;100128.28;;;15.23;100.00
36062;BME280;22123;52.412;20.970;2023-08-08T07:12:05;100139.72;;;15.45;100.00
36062;BME280;22123;52.412;20.970;2023-08-08T07:14:30;100168.03;;;15.69;100.00
36062;BME280;22123;52.412;20.970;2023-08-08T07:16:56;100148.03;;;15.63;100.00
36062;BME280;22123;52.412;20.970;2023-08-08T07:19:22;100148.19;;;15.75;100.00
36062;BME280;22123;52.412;20.970;2023-08-08T07:21:48;100127.56;;;15.68;100.00
36062;BME280;22123;52.412;20.970;2023-08-08T07:24:13;100177.63;;;15.85;100.00
36062;BME280;22123;52.412;20.970;2023-08-08T07:26:39;100102.13;;;15.62;100.00
36062;BME280;22123;52.412;20.970;2023-08-08T07:29:05;100145.06;;;15.85;100.00
36062;BME280;22123;52.412;20.970;2023-08-08T07:31:31;100165.06;;;15.97;100.00
36062;BME280;22123;52.412;20.970;2023-08-08T07:33:57;100135.06;;;15.72;100.00
36062;BME280;22123;52.412;20.970;2023-08-08T07:36:23;100169.28;;;15.87;100.00
36062;BME280;22123;52.412;20.970;2023-08-08T07:38:49;100125.50;;;15.56;100.00
36062;BME280;22123;52.412;20.970;2023-08-08T07:41:14;100172.00;;;15.87;100.00
36062;BME280;22123;52.412;20.970;2023-08-08T07:43:40;100181.38;;;15.84;100.00
36062;BME280;22123;52.412;20.970;2023-08-08T07:46:06;100189.31;;;15.92;100.00
36062;BME280;22123;52.412;20.970;2023-08-08T07:48:32;100125.66;;;15.68;100.00
36062;BME280;22123;52.412;20.970;2023-08-08T07:50:58;100179.19;;;16.13;100.00
36062;BME280;22123;52.412;20.970;2023-08-08T07:53:24;100165.63;;;16.13;100.00
36062;BME280;22123;52.412;20.970;2023-08-08T07:55:50;100154.00;;;15.99;100.00
36062;BME280;22123;52.412;20.970;2023-08-08T07:58:15;100163.91;;;16.19;100.00
36062;BME280;22123;52.412;20.970;2023-08-08T08:00:41;100152.19;;;16.25;100.00
36062;BME280;22123;52.412;20.970;2023-08-08T08:03:07;100177.41;;;16.39;100.00
36062;BME280;22123;52.412;20.970;2023-08-08T08:05:33;100166.34;;;16.33;100.00
36062;BME280;22123;52.412;20.970;2023-08-08T08:07:59;100176.97;;;16.42;100.00
36062;BME280;22123;52.412;20.970;2023-08-08T08:10:24;100136.97;;;16.17;100.00
36062;BME280;22123;52.412;20.970;2023-08-08T08:12:50;100173.91;;;16.63;100.00
36062;BME280;22123;52.412;20.970;2023-08-08T08:15:16;100132.91;;;16.33;100.00
36062;BME280;22123;52.412;20.970;2023-08-08T08:17:42;100174.59;;;16.52;100.00
36062;BME280;22123;52.412;20.970;2023-08-08T08:20:08;100146.63;;;16.45;100.00
36062;BME280;22123;52.412;20.970;2023-08-08T08:22:34;100115.44;;;16.22;100.00
36062;BME280;22123;52.412;20.970;2023-08-08T08:24:59;100171.44;;;16.55;100.00
36062;BME280;22123;52.412;20.970;2023-08-08T08:27:25;100154.97;;;16.50;100.00
36062;BME280;22123;52.412;20.970;2023-08-08T08:29:55;100183.88;;;16.69;100.00
36062;BME280;22123;52.412;20.970;2023-08-08T08:32:21;100157.38;;;16.65;100.00
36062;BME280;22123;52.412;20.970;2023-08-08T08:34:46;100184.19;;;16.93;100.00
36062;BME280;22123;52.412;20.970;2023-08-08T08:37:12;100175.84;;;16.88;100.00
36062;BME280;22123;52.412;20.970;2023-08-08T08:39:38;100174.56;;;16.91;100.00
36062;BME280;22123;52.412;20.970;2023-08-08T08:42:04;100189.25;;;17.15;100.00
36062;BME280;22123;52.412;20.970;2023-08-08T08:44:31;100157.09;;;17.05;100.00
36062;BME280;22123;52.412;20.970;2023-08-08T08:47:00;100169.31;;;17.21;100.00
36062;BME280;22123;52.412;20.970;2023-08-08T08:49:29;100179.97;;;17.23;100.00
36062;BME280;22123;52.412;20.970;2023-08-08T08:51:57;100137.63;;;17.08;100.00
36062;BME280;22123;52.412;20.970;2023-08-08T08:54:23;100169.34;;;17.40;100.00
36062;BME280;22123;52.412;20.970;2023-08-08T08:56:50;100163.22;;;17.44;100.00
36062;BME280;22123;52.412;20.970;2023-08-08T08:59:16;100191.44;;;17.68;100.00
36062;BME280;22123;52.412;20.970;2023-08-08T09:01:41;100172.59;;;17.48;100.00
36062;BME280;22123;52.412;20.970;2023-08-08T09:04:08;100194.19;;;17.43;100.00
36062;BME280;22123;52.412;20.970;2023-08-08T09:06:35;100185.25;;;17.36;100.00
36062;BME280;22123;52.412;20.970;2023-08-08T09:09:01;100196.91;;;17.68;100.00
36062;BME280;22123;52.412;20.970;2023-08-08T09:11:26;100164.75;;;17.59;100.00
36062;BME280;22123;52.412;20.970;2023-08-08T09:13:52;100144.19;;;17.19;100.00
36062;BME280;22123;52.412;20.970;2023-08-08T09:16:18;100194.44;;;17.42;100.00
36062;BME280;22123;52.412;20.970;2023-08-08T09:18:44;100202.59;;;17.42;100.00
36062;BME280;22123;52.412;20.970;2023-08-08T09:21:09;100210.69;;;17.23;100.00
36062;BME280;22123;52.412;20.970;2023-08-08T09:23:37;100215.78;;;17.19;100.00
36062;BME280;22123;52.412;20.970;2023-08-08T09:26:02;100169.34;;;16.89;100.00
36062;BME280;22123;52.412;20.970;2023-08-08T09:28:28;100205.59;;;17.08;100.00
36062;BME280;22123;52.412;20.970;2023-08-08T09:30:54;100206.16;;;17.17;100.00
36062;BME280;22123;52.412;20.970;2023-08-08T09:33:20;100175.81;;;16.95;100.00
36062;BME280;22123;52.412;20.970;2023-08-08T09:35:46;100208.69;;;17.12;100.00
36062;BME280;22123;52.412;20.970;2023-08-08T09:38:11;100167.50;;;16.83;100.00
36062;BME280;22123;52.412;20.970;2023-08-08T09:40:37;100198.25;;;17.09;100.00
36062;BME280;22123;52.412;20.970;2023-08-08T09:43:03;100208.31;;;17.33;100.00
36062;BME280;22123;52.412;20.970;2023-08-08T09:45:40;100196.91;;;17.43;100.00
36062;BME280;22123;52.412;20.970;2023-08-08T09:48:06;100209.63;;;17.49;100.00
36062;BME280;22123;52.412;20.970;2023-08-08T09:50:33;100156.69;;;17.27;100.00
36062;BME280;22123;52.412;20.970;2023-08-08T09:53:02;100146.69;;;17.20;100.00
36062;BME280;22123;52.412;20.970;2023-08-08T09:55:28;100215.50;;;17.71;100.00
36062;BME280;22123;52.412;20.970;2023-08-08T09:57:55;100192.28;;;17.69;100.00
36062;BME280;22123;52.412;20.970;2023-08-08T10:00:22;100216.78;;;17.87;100.00
36062;BME280;22123;52.412;20.970;2023-08-08T10:02:47;100215.09;;;17.93;100.00
36062;BME280;22123;52.412;20.970;2023-08-08T10:05:14;100206.28;;;17.91;100.00
36062;BME280;22123;52.412;20.970;2023-08-08T10:07:41;100171.53;;;17.68;100.00
36062;BME280;22123;52.412;20.970;2023-08-08T10:10:09;100170.56;;;17.81;100.00
36062;BME280;22123;52.412;20.970;2023-08-08T10:12:39;100201.75;;;18.03;100.00
36062;BME280;22123;52.412;20.970;2023-08-08T10:15:09;100206.94;;;17.86;100.00
36062;BME280;22123;52.412;20.970;2023-08-08T10:17:39;100207.00;;;17.80;100.00
36062;BME280;22123;52.412;20.970;2023-08-08T10:20:08;100195.69;;;17.64;100.00
36062;BME280;22123;52.412;20.970;2023-08-08T10:22:35;100194.09;;;17.75;100.00
36062;BME280;22123;52.412;20.970;2023-08-08T10:25:03;100167.31;;;17.72;100.00
36062;BME280;22123;52.412;20.970;2023-08-08T10:27:33;100200.78;;;18.47;100.00
36062;BME280;22123;52.412;20.970;2023-08-08T10:30:03;100192.56;;;19.19;100.00
36062;BME280;22123;52.412;20.970;2023-08-08T10:32:38;100186.53;;;19.41;100.00
36062;BME280;22123;52.412;20.970;2023-08-08T10:35:05;100165.63;;;19.23;100.00
36062;BME280;22123;52.412;20.970;2023-08-08T10:37:31;100194.94;;;19.16;100.00
36062;BME280;22123;52.412;20.970;2023-08-08T10:39:59;100183.28;;;18.97;100.00
36062;BME280;22123;52.412;20.970;2023-08-08T10:42:27;100219.97;;;18.82;100.00
36062;BME280;22123;52.412;20.970;2023-08-08T10:44:55;100207.50;;;18.63;100.00
36062;BME280;22123;52.412;20.970;2023-08-08T10:47:33;100218.56;;;18.49;100.00
36062;BME280;22123;52.412;20.970;2023-08-08T10:50:04;100211.25;;;18.31;100.00
36062;BME280;22123;52.412;20.970;2023-08-08T10:52:30;100205.81;;;18.13;100.00
36062;BME280;22123;52.412;20.970;2023-08-08T10:54:56;100219.22;;;18.14;100.00
36062;BME280;22123;52.412;20.970;2023-08-08T10:57:25;100210.44;;;18.12;100.00
36062;BME280;22123;52.412;20.970;2023-08-08T10:59:51;100192.50;;;18.04;100.00
36062;BME280;22123;52.412;20.970;2023-08-08T11:02:18;100223.16;;;18.18;100.00
36062;BME280;22123;52.412;20.970;2023-08-08T11:04:44;100200.25;;;18.07;100.00
36062;BME280;22123;52.412;20.970;2023-08-08T11:07:10;100199.47;;;17.82;100.00
36062;BME280;22123;52.412;20.970;2023-08-08T11:09:36;100231.56;;;17.98;100.00
36062;BME280;22123;52.412;20.970;2023-08-08T11:12:02;100210.06;;;17.90;100.00
36062;BME280;22123;52.412;20.970;2023-08-08T11:14:28;100209.25;;;18.08;100.00
36062;BME280;22123;52.412;20.970;2023-08-08T11:16:54;100216.94;;;18.11;100.00
36062;BME280;22123;52.412;20.970;2023-08-08T11:19:20;100241.19;;;18.19;100.00
36062;BME280;22123;52.412;20.970;2023-08-08T11:21:46;100246.06;;;18.29;100.00
36062;BME280;22123;52.412;20.970;2023-08-08T11:24:13;100243.44;;;18.41;100.00
36062;BME280;22123;52.412;20.970;2023-08-08T11:26:41;100232.53;;;18.41;100.00
36062;BME280;22123;52.412;20.970;2023-08-08T11:29:07;100237.31;;;18.57;100.00
36062;BME280;22123;52.412;20.970;2023-08-08T11:31:36;100228.13;;;18.70;100.00
36062;BME280;22123;52.412;20.970;2023-08-08T11:34:03;100219.69;;;18.60;100.00
36062;BME280;22123;52.412;20.970;2023-08-08T11:36:30;100228.16;;;18.82;100.00
36062;BME280;22123;52.412;20.970;2023-08-08T11:38:57;100212.34;;;19.03;100.00
36062;BME280;22123;52.412;20.970;2023-08-08T11:41:23;100203.72;;;19.18;100.00
36062;BME280;22123;52.412;20.970;2023-08-08T11:43:50;100213.69;;;19.36;100.00
36062;BME280;22123;52.412;20.970;2023-08-08T11:46:16;100207.41;;;19.23;100.00
36062;BME280;22123;52.412;20.970;2023-08-08T11:48:42;100249.03;;;19.19;100.00
36062;BME280;22123;52.412;20.970;2023-08-08T11:51:08;100246.84;;;18.97;100.00
36062;BME280;22123;52.412;20.970;2023-08-08T11:53:34;100221.03;;;18.81;100.00
36062;BME280;22123;52.412;20.970;2023-08-08T11:56:00;100249.41;;;19.22;100.00
36062;BME280;22123;52.412;20.970;2023-08-08T11:58:26;100252.38;;;19.44;100.00
36062;BME280;22123;52.412;20.970;2023-08-08T12:00:52;100231.38;;;19.33;100.00
36062;BME280;22123;52.412;20.970;2023-08-08T12:03:18;100211.66;;;19.07;100.00
36062;BME280;22123;52.412;20.970;2023-08-08T12:05:48;100193.16;;;19.09;100.00
36062;BME280;22123;52.412;20.970;2023-08-08T12:08:18;100233.28;;;19.44;100.00
36062;BME280;22123;52.412;20.970;2023-08-08T12:10:48;100250.38;;;19.28;100.00
36062;BME280;22123;52.412;20.970;2023-08-08T12:13:14;100223.38;;;18.96;100.00
36062;BME280;22123;52.412;20.970;2023-08-08T12:15:42;100230.03;;;19.00;100.00
36062;BME280;22123;52.412;20.970;2023-08-08T12:18:08;100239.13;;;18.94;100.00
36062;BME280;22123;52.412;20.970;2023-08-08T12:20:34;100238.06;;;18.95;100.00
36062;BME280;22123;52.412;20.970;2023-08-08T12:23:00;100252.59;;;19.19;100.00
36062;BME280;22123;52.412;20.970;2023-08-08T12:25:26;100221.00;;;19.11;100.00
36062;BME280;22123;52.412;20.970;2023-08-08T12:27:52;100217.59;;;19.16;100.00